Fair River, Mississippi
Current Conditions -  °F | °C
As of 6:53 AM on Saturday 20 Dec 2014 (Local Time) from KMCB Reporting Station
Overcast Overcast  
Wind Chill:   Ceiling: 400
Heat Index:   Visibility: 8mi
Dew Point:   Wind: 5mph
Humidity: 93%   Direction: NA
Pressure: 30.15"   Gusts: NA
Location:  31.5898°N, 90.4722°W
Report Text: KMCB 201253Z AUTO VRB04KT 8SM OVC004 07/06 A3015 RMK AO2 SLP210 T00720061
Loading
Personal Weather Stations






























Interactive Weather Map New forecast layout! Learn more

10-Day Weather Forecast

Advertisements
Track Severe Weather on mobile